Time;durP1;ratioP1;P1;durP2;ratioP2;P2;SDS_P1;SDS_P2;PMS_P1;PMS_P2;Temp;Humidity;BMP_temperature;BMP_pressure;BME280_temperature;BME280_humidity;BME280_pressure;Samples;Min_cycle;Max_cycle;Signal;HPM_P1;HPM_P2
2022/09/30 00:02:05;;;;;;;30.30;19.70;;;;;;;11.46;75.14;98276.60;105886;1278;96595;-65
2022/09/30 00:04:37;;;;;;;35.70;19.80;;;;;;;11.47;75.11;98277.41;105958;1277;99235;-65
2022/09/30 00:07:09;;;;;;;33.60;20.20;;;;;;;11.47;75.17;98278.11;105939;1276;113323;-64
2022/09/30 00:09:38;;;;;;;33.10;20.70;;;;;;;11.47;75.10;98274.19;105954;1277;97739;-64
2022/09/30 00:12:12;;;;;;;31.00;20.30;;;;;;;11.47;75.23;98273.98;105984;1278;108393;-63
2022/09/30 00:14:40;;;;;;;29.90;19.90;;;;;;;11.48;75.07;98272.90;105940;1277;96615;-64
2022/09/30 00:17:08;;;;;;;29.90;19.10;;;;;;;11.49;75.18;98276.16;105946;1277;99333;-64
2022/09/30 00:19:36;;;;;;;28.00;18.60;;;;;;;11.49;75.18;98276.21;105951;1278;114147;-64
2022/09/30 00:22:08;;;;;;;31.10;20.60;;;;;;;11.48;75.26;98273.09;106021;1277;99382;-65
2022/09/30 00:24:38;;;;;;;32.00;19.80;;;;;;;11.49;75.19;98269.95;106023;1277;107862;-64
2022/09/30 00:27:08;;;;;;;30.90;19.00;;;;;;;11.50;75.17;98272.06;105957;1277;96663;-65
2022/09/30 00:29:36;;;;;;;29.50;18.80;;;;;;;11.49;75.27;98270.13;105907;1277;97927;-66
2022/09/30 00:32:04;;;;;;;31.40;18.80;;;;;;;11.48;75.32;98275.73;105941;1278;113327;-65
2022/09/30 00:34:36;;;;;;;34.30;19.90;;;;;;;11.49;75.41;98278.14;105861;1277;96786;-65
2022/09/30 00:37:04;;;;;;;32.30;19.50;;;;;;;11.50;75.37;98275.90;105839;1277;108325;-65
2022/09/30 00:39:33;;;;;;;31.60;19.40;;;;;;;11.50;75.30;98269.34;105908;1277;99248;-64
2022/09/30 00:42:13;;;;;;;31.30;19.10;;;;;;;11.51;75.28;98269.10;105976;1278;99333;-64
2022/09/30 00:44:44;;;;;;;30.30;19.40;;;;;;;11.50;75.26;98280.20;105990;1277;112861;-66
2022/09/30 00:47:23;;;;;;;;;;;;;;;11.49;75.35;98285.21;105939;1277;100210;-64
2022/09/30 00:49:54;;;;;;;29.80;18.00;;;;;;;11.43;75.30;98293.52;105929;1277;108867;-63
2022/09/30 00:52:23;;;;;;;29.50;18.60;;;;;;;11.39;75.27;98289.68;105953;1276;99315;-61
2022/09/30 00:54:56;;;;;;;31.90;19.10;;;;;;;11.40;75.35;98275.20;105929;1277;96647;-63
2022/09/30 00:57:25;;;;;;;29.80;19.40;;;;;;;11.41;75.37;98272.41;105930;1277;113362;-63
2022/09/30 00:59:53;;;;;;;31.00;19.40;;;;;;;11.43;75.43;98268.37;105949;1277;99332;-61
2022/09/30 01:02:23;;;;;;;34.30;19.60;;;;;;;11.43;75.46;98258.05;105949;1277;108394;-64
2022/09/30 01:04:53;;;;;;;33.10;19.60;;;;;;;11.44;75.36;98254.61;105811;1277;99348;-63
2022/09/30 01:07:27;;;;;;;30.30;17.80;;;;;;;11.44;75.45;98255.85;105925;1277;99298;-64
2022/09/30 01:10:00;;;;;;;32.00;19.40;;;;;;;11.45;75.37;98256.47;105790;1277;111877;-63
2022/09/30 01:12:29;;;;;;;29.30;19.20;;;;;;;11.46;75.32;98257.81;105921;1277;96878;-64
2022/09/30 01:15:03;;;;;;;29.70;18.90;;;;;;;11.47;75.52;98261.27;105868;1277;108303;-65
2022/09/30 01:18:01;;;;;;;31.00;19.20;;;;;;;11.48;75.41;98261.89;105966;1277;97074;-65
2022/09/30 01:20:43;;;;;;;29.00;17.60;;;;;;;11.48;75.52;98259.03;105877;1277;99265;-65
2022/09/30 01:23:26;;;;;;;28.90;18.40;;;;;;;11.47;75.41;98255.77;105870;1277;113415;-65
2022/09/30 01:26:29;;;;;;;31.40;19.70;;;;;;;11.46;75.47;98255.60;105887;1277;99292;-65
2022/09/30 01:29:25;;;;;;;30.70;18.20;;;;;;;11.47;75.46;98257.71;105909;1276;108374;-63
2022/09/30 01:32:31;;;;;;;29.70;18.00;;;;;;;11.48;75.53;98256.56;105949;1276;96635;-64
2022/09/30 01:35:10;;;;;;;30.00;18.10;;;;;;;11.48;75.56;98262.79;105964;1276;99224;-65
2022/09/30 01:38:16;;;;;;;28.60;18.40;;;;;;;11.48;75.56;98274.84;105919;1277;113882;-64
2022/09/30 01:41:13;;;;;;;29.60;18.00;;;;;;;11.48;75.55;98273.75;105926;1276;99279;-65
2022/09/30 01:44:02;;;;;;;28.80;18.00;;;;;;;11.50;75.53;98275.02;105949;1276;108330;-64
2022/09/30 01:46:43;;;;;;;31.20;18.50;;;;;;;11.44;75.41;98287.30;105928;1277;96739;-65
2022/09/30 01:49:27;;;;;;;30.60;18.90;;;;;;;11.33;75.27;98296.89;106052;1277;99243;-66
2022/09/30 01:51:54;;;;;;;;;;;;;;;11.24;75.22;98306.05;106024;1277;113346;-67
2022/09/30 01:54:56;;;;;;;32.10;18.00;;;;;;;11.15;75.54;98302.05;106022;1276;97634;-65
2022/09/30 01:57:36;;;;;;;29.60;18.60;;;;;;;11.16;75.79;98287.90;105909;1276;109231;-67
2022/09/30 02:00:14;;;;;;;31.70;19.10;;;;;;;11.20;75.66;98278.86;105970;1276;99320;-64
2022/09/30 02:02:53;;;;;;;31.70;18.60;;;;;;;11.23;75.72;98264.95;106020;1276;99314;-65
2022/09/30 02:05:30;;;;;;;31.20;18.10;;;;;;;11.25;75.71;98252.76;105947;1277;113290;-65
2022/09/30 02:08:08;;;;;;;31.80;19.00;;;;;;;11.26;75.75;98248.52;105925;1276;100111;-65
2022/09/30 02:10:47;;;;;;;31.20;18.60;;;;;;;11.28;75.75;98249.97;105933;1276;107721;-63
2022/09/30 02:13:24;;;;;;;29.80;19.20;;;;;;;11.29;75.78;98257.33;105966;1276;99316;-63
2022/09/30 02:15:56;;;;;;;30.30;17.70;;;;;;;11.31;75.85;98256.27;105955;1277;99350;-63
2022/09/30 02:18:30;;;;;;;33.30;18.20;;;;;;;11.33;75.77;98259.48;105983;1276;112912;-63
2022/09/30 02:21:05;;;;;;;30.00;18.00;;;;;;;11.34;75.86;98265.09;105987;1276;96721;-64
2022/09/30 02:23:41;;;;;;;36.30;20.10;;;;;;;11.36;75.92;98266.32;105959;1277;107897;-63
2022/09/30 02:26:23;;;;;;;31.60;18.90;;;;;;;11.37;75.81;98265.36;105898;1277;99298;-64
2022/09/30 02:29:12;;;;;;;33.30;19.20;;;;;;;11.37;75.71;98267.64;105909;1276;99233;-66
2022/09/30 02:31:44;;;;;;;36.50;19.30;;;;;;;11.35;75.88;98265.02;105914;1277;112760;-64
2022/09/30 02:34:21;;;;;;;34.40;19.30;;;;;;;11.35;75.82;98277.73;105932;1277;97079;-63
2022/09/30 02:37:30;;;;;;;40.10;21.20;;;;;;;11.32;75.78;98286.54;105890;1277;106984;-65
2022/09/30 02:40:20;;;;;;;37.70;20.60;;;;;;;11.30;75.84;98295.75;105933;1276;99364;-65
2022/09/30 02:42:48;;;;;;;39.10;21.10;;;;;;;11.31;75.95;98303.64;105948;1276;99279;-64
2022/09/30 02:45:24;;;;;;;40.10;21.60;;;;;;;11.34;75.95;98301.98;105993;1276;113312;-64
2022/09/30 02:48:14;;;;;;;36.10;20.00;;;;;;;11.35;75.99;98302.44;105944;1277;99326;-64
2022/09/30 02:50:50;;;;;;;41.30;22.20;;;;;;;11.37;76.05;98305.48;105960;1277;108570;-64
2022/09/30 02:53:24;;;;;;;36.90;21.10;;;;;;;11.38;76.02;98308.19;106035;1276;99365;-64
2022/09/30 02:56:10;;;;;;;36.20;21.20;;;;;;;11.38;76.01;98298.81;105965;1276;99926;-63
2022/09/30 02:58:45;;;;;;;40.90;22.10;;;;;;;11.41;76.09;98304.16;105964;1276;113372;-66
2022/09/30 03:01:15;;;;;;;38.90;20.70;;;;;;;11.41;75.98;98304.69;105967;1276;99471;-65
2022/09/30 03:04:00;;;;;;;44.40;23.00;;;;;;;11.42;76.05;98301.22;105953;1276;109070;-63
2022/09/30 03:06:32;;;;;;;36.30;20.80;;;;;;;11.44;76.02;98298.11;105921;1277;97987;-64
2022/09/30 03:09:04;;;;;;;40.20;21.50;;;;;;;11.45;76.11;98303.01;105977;1276;99327;-64
2022/09/30 03:11:36;;;;;;;42.90;23.00;;;;;;;11.44;76.17;98307.12;105949;1277;112820;-64
2022/09/30 03:14:30;;;;;;;47.70;22.20;;;;;;;11.44;76.04;98304.10;105980;1276;96739;-64
2022/09/30 03:17:40;;;;;;;41.50;21.00;;;;;;;11.44;76.09;98303.27;106028;1277;108513;-65
2022/09/30 03:20:40;;;;;;;42.60;22.20;;;;;;;11.43;76.21;98310.05;105683;1276;99324;-64
2022/09/30 03:23:43;;;;;;;42.00;22.50;;;;;;;11.42;76.28;98312.30;105739;1278;99304;-64
2022/09/30 03:26:42;;;;;;;39.60;21.00;;;;;;;11.42;76.30;98318.65;105898;1276;113492;-64
2022/09/30 03:29:23;;;;;;;46.10;23.40;;;;;;;11.44;76.25;98322.95;105915;1276;96782;-62
2022/09/30 03:31:59;;;;;;;46.50;23.40;;;;;;;11.45;76.25;98324.83;105887;1276;109189;-65
2022/09/30 03:34:58;;;;;;;45.80;22.60;;;;;;;11.45;76.27;98327.94;105923;1276;99339;-64
2022/09/30 03:37:57;;;;;;;42.90;22.30;;;;;;;11.45;76.21;98327.62;105912;1276;99289;-63
2022/09/30 03:40:55;;;;;;;41.10;22.70;;;;;;;11.44;76.21;98325.45;105975;1276;114198;-64
2022/09/30 03:43:50;;;;;;;49.40;25.60;;;;;;;11.44;76.18;98323.97;105986;1276;96776;-64
2022/09/30 03:46:30;;;;;;;46.60;24.90;;;;;;;11.44;76.27;98320.42;105961;1277;108386;-66
2022/09/30 03:49:07;;;;;;;45.30;24.90;;;;;;;11.45;76.31;98316.09;105935;1277;99177;-65
2022/09/30 03:51:43;;;;;;;47.90;24.90;;;;;;;11.46;76.24;98321.89;106017;1277;99425;-65
2022/09/30 03:54:15;;;;;;;48.70;23.70;;;;;;;11.46;76.28;98319.67;105845;1276;188452;-65
2022/09/30 03:56:44;;;;;;;47.40;22.70;;;;;;;11.47;76.29;98317.52;105981;1276;96662;-65
2022/09/30 03:59:29;;;;;;;48.20;24.00;;;;;;;11.46;76.39;98318.70;105999;1276;108706;-65
2022/09/30 04:01:57;;;;;;;44.30;24.00;;;;;;;11.45;76.28;98318.55;105963;1276;99179;-64
2022/09/30 04:04:29;;;;;;;46.40;23.60;;;;;;;11.46;76.31;98324.00;105973;1276;99199;-65
2022/09/30 04:06:56;;;;;;;45.90;24.50;;;;;;;11.47;76.33;98326.36;106003;1276;113364;-65
2022/09/30 04:09:26;;;;;;;45.80;24.60;;;;;;;11.50;76.34;98327.79;106011;1276;99259;-66
2022/09/30 04:11:55;;;;;;;43.90;24.00;;;;;;;11.50;76.36;98327.59;106032;1276;107682;-64
2022/09/30 04:14:23;;;;;;;47.10;25.10;;;;;;;11.50;76.33;98328.66;105818;1276;97942;-64
2022/09/30 04:16:52;;;;;;;49.30;24.60;;;;;;;11.47;76.32;98333.50;107690;1277;97464;-64
2022/09/30 04:19:20;;;;;;;47.30;24.10;;;;;;;11.45;76.46;98333.70;107510;1277;112790;-64
2022/09/30 04:21:53;;;;;;;47.20;23.00;;;;;;;11.45;76.33;98335.26;106615;1276;99342;-63
2022/09/30 04:24:23;;;;;;;47.20;23.80;;;;;;;11.45;76.34;98336.88;107605;1276;107772;-64
2022/09/30 04:26:51;;;;;;;46.90;24.50;;;;;;;11.43;76.24;98332.59;106039;1276;98332;-64
2022/09/30 04:29:21;;;;;;;49.10;23.40;;;;;;;11.43;76.35;98336.83;105984;1277;99253;-65
2022/09/30 04:31:52;;;;;;;47.70;24.80;;;;;;;11.44;76.28;98342.80;105912;1277;113601;-63
2022/09/30 04:34:21;;;;;;;50.30;25.90;;;;;;;11.43;76.41;98344.11;105960;1276;99223;-63
2022/09/30 04:36:52;;;;;;;49.40;25.40;;;;;;;11.43;76.42;98346.98;106056;1276;108355;-64
2022/09/30 04:39:24;;;;;;;47.40;24.60;;;;;;;11.44;76.54;98346.02;105905;1278;96767;-66
2022/09/30 04:41:52;;;;;;;41.90;22.00;;;;;;;11.43;76.43;98342.90;107082;1276;98039;-63
2022/09/30 04:44:24;;;;;;;43.10;23.30;;;;;;;11.41;76.54;98350.19;105914;1276;112527;-63
2022/09/30 04:46:54;;;;;;;44.30;23.30;;;;;;;11.42;76.54;98357.92;106018;1276;99232;-65
2022/09/30 04:49:26;;;;;;;46.60;23.00;;;;;;;11.43;76.64;98357.81;105998;1275;109133;-65
2022/09/30 04:51:58;;;;;;;43.90;23.70;;;;;;;11.46;76.52;98363.23;106015;1276;99226;-64
2022/09/30 04:54:26;;;;;;;42.20;22.30;;;;;;;11.47;76.68;98360.98;106549;1276;99379;-64
2022/09/30 04:56:54;;;;;;;42.60;21.00;;;;;;;11.49;76.60;98353.44;107243;1276;114286;-64
2022/09/30 04:59:22;;;;;;;42.80;22.50;;;;;;;11.49;76.58;98354.80;105773;1277;99346;-61
2022/09/30 05:01:53;;;;;;;42.10;21.70;;;;;;;11.52;76.68;98354.94;105739;1276;108444;-65
2022/09/30 05:04:21;;;;;;;43.00;22.00;;;;;;;11.54;76.55;98349.42;105764;1277;99334;-62
2022/09/30 05:06:50;;;;;;;39.20;20.70;;;;;;;11.55;76.71;98357.30;105792;1277;99347;-64
2022/09/30 05:09:19;;;;;;;41.00;20.70;;;;;;;11.56;76.70;98369.09;105917;1276;113389;-62
2022/09/30 05:11:50;;;;;;;39.00;20.90;;;;;;;11.58;76.72;98368.64;105925;1276;96631;-65
2022/09/30 05:14:20;;;;;;;40.00;19.90;;;;;;;11.59;76.68;98367.11;105957;1277;109760;-65
2022/09/30 05:16:50;;;;;;;43.10;20.40;;;;;;;11.61;76.81;98360.36;105870;1276;96728;-63
2022/09/30 05:19:18;;;;;;;38.60;19.10;;;;;;;11.62;76.69;98354.75;105896;1276;99224;-63
2022/09/30 05:21:47;;;;;;;40.30;20.20;;;;;;;11.62;76.81;98361.33;105837;1277;113241;-63
2022/09/30 05:24:19;;;;;;;43.40;20.50;;;;;;;11.61;76.68;98360.19;105892;1277;99424;-66
2022/09/30 05:26:53;;;;;;;36.80;18.80;;;;;;;11.60;76.80;98362.06;105906;1277;109232;-67
2022/09/30 05:29:21;;;;;;;40.10;19.50;;;;;;;11.60;76.74;98359.88;105899;1276;99317;-65
2022/09/30 05:31:50;;;;;;;38.70;19.60;;;;;;;11.63;76.75;98359.84;105958;1277;99215;-65
2022/09/30 05:34:20;;;;;;;38.70;19.60;;;;;;;11.64;76.86;98357.10;105820;1277;113845;-63
2022/09/30 05:36:49;;;;;;;36.10;18.50;;;;;;;11.64;76.85;98359.04;105864;1276;99240;-66
2022/09/30 05:39:17;;;;;;;38.80;18.20;;;;;;;11.63;76.90;98362.31;105822;1277;108285;-65
2022/09/30 05:41:49;;;;;;;37.40;18.00;;;;;;;11.63;76.89;98366.88;105852;1277;99222;-65
2022/09/30 05:44:18;;;;;;;35.00;17.60;;;;;;;11.64;76.99;98371.98;105836;1277;99290;-64
2022/09/30 05:46:48;;;;;;;38.20;18.10;;;;;;;11.66;76.93;98378.38;105868;1278;113325;-67
2022/09/30 05:49:18;;;;;;;35.00;16.80;;;;;;;11.69;76.99;98380.80;105950;1277;100018;-63
2022/09/30 05:51:47;;;;;;;34.70;16.60;;;;;;;11.71;76.88;98382.91;105918;1276;106838;-68
2022/09/30 05:54:15;;;;;;;35.40;17.20;;;;;;;11.73;76.91;98380.44;105809;1276;99339;-66
2022/09/30 05:56:45;;;;;;;34.90;16.80;;;;;;;11.74;76.91;98379.42;105878;1276;99230;-65
2022/09/30 05:59:16;;;;;;;32.80;16.50;;;;;;;11.77;77.05;98381.88;105853;1277;113661;-65
2022/09/30 06:01:48;;;;;;;34.30;16.00;;;;;;;11.79;77.00;98380.80;105845;1276;99211;-64
2022/09/30 06:04:16;;;;;;;35.20;16.40;;;;;;;11.82;77.13;98384.98;105839;1276;108552;-66
2022/09/30 06:06:48;;;;;;;31.70;14.70;;;;;;;11.85;77.07;98391.11;105836;1277;96764;-64
2022/09/30 06:09:16;;;;;;;32.30;15.10;;;;;;;11.87;77.02;98387.92;105832;1277;99258;-63
2022/09/30 06:11:49;;;;;;;31.20;16.30;;;;;;;11.89;77.07;98390.40;105896;1278;114312;-65
2022/09/30 06:14:18;;;;;;;30.90;13.60;;;;;;;11.91;77.06;98391.64;105858;1278;99240;-65
2022/09/30 06:16:50;;;;;;;30.20;15.30;;;;;;;11.94;77.11;98392.85;105852;1276;108411;-65
2022/09/30 06:19:18;;;;;;;31.80;14.20;;;;;;;11.95;77.09;98388.25;105883;1276;97677;-67
2022/09/30 06:21:50;;;;;;;27.80;14.00;;;;;;;11.98;77.21;98389.56;105885;1276;99873;-65
2022/09/30 06:24:19;;;;;;;26.70;13.50;;;;;;;12.02;77.19;98387.34;105938;1276;113836;-66
2022/09/30 06:26:51;;;;;;;29.30;13.50;;;;;;;12.05;77.26;98383.69;105970;1276;99202;-66
2022/09/30 06:29:22;;;;;;;28.00;13.70;;;;;;;12.07;77.21;98385.10;105961;1276;108689;-64
2022/09/30 06:31:54;;;;;;;27.30;13.70;;;;;;;12.11;77.32;98386.18;106172;1276;97867;-64
2022/09/30 06:34:23;;;;;;;30.60;14.40;;;;;;;12.14;77.25;98389.80;106069;1276;99300;-62
2022/09/30 06:36:53;;;;;;;28.20;14.10;;;;;;;12.17;77.24;98392.90;105925;1276;113117;-65
2022/09/30 06:39:21;;;;;;;28.00;12.90;;;;;;;12.19;77.23;98388.41;105862;1276;99294;-63
2022/09/30 06:41:50;;;;;;;28.30;14.00;;;;;;;12.22;77.34;98384.29;105939;1276;107388;-65
2022/09/30 06:44:17;;;;;;;24.70;12.50;;;;;;;12.25;77.30;98391.33;105930;1276;99285;-63
2022/09/30 06:46:46;;;;;;;25.30;12.70;;;;;;;12.27;77.27;98388.07;105968;1276;99943;-63
2022/09/30 06:49:21;;;;;;;25.10;12.60;;;;;;;12.31;77.25;98387.10;106639;1276;112884;-64
2022/09/30 06:51:51;;;;;;;26.30;11.90;;;;;;;12.33;77.28;98383.84;107724;1275;97436;-63
2022/09/30 06:54:21;;;;;;;25.40;12.80;;;;;;;12.35;77.27;98375.98;107714;1275;108737;-64
2022/09/30 06:56:52;;;;;;;24.20;11.50;;;;;;;12.39;77.29;98375.67;107726;1276;97259;-64
2022/09/30 06:59:21;;;;;;;24.90;12.40;;;;;;;12.42;77.20;98372.41;106337;1276;99351;-65
2022/09/30 07:01:51;;;;;;;23.50;11.40;;;;;;;12.45;77.28;98376.27;106179;1276;113470;-64
2022/09/30 07:04:25;;;;;;;24.40;12.20;;;;;;;12.49;77.20;98374.14;105848;1276;99200;-66
2022/09/30 07:06:54;;;;;;;22.00;10.80;;;;;;;12.54;77.24;98376.09;105847;1276;108311;-65
2022/09/30 07:09:25;;;;;;;22.50;10.90;;;;;;;12.57;77.35;98375.58;105854;1276;99300;-64
2022/09/30 07:11:57;;;;;;;23.80;10.90;;;;;;;12.60;77.34;98372.55;105872;1276;99313;-64
2022/09/30 07:14:29;;;;;;;21.60;10.70;;;;;;;12.63;77.33;98377.77;105980;1276;114980;-62
2022/09/30 07:17:03;;;;;;;22.10;10.40;;;;;;;12.65;77.33;98373.98;106068;1276;100096;-64
2022/09/30 07:19:35;;;;;;;20.50;10.10;;;;;;;12.70;77.37;98378.72;105865;1275;108319;-64
2022/09/30 07:24:57;;;;;;;20.80;10.20;;;;;;;12.76;77.42;98379.75;105879;1276;99153;-63
2022/09/30 07:27:31;;;;;;;20.00;10.10;;;;;;;12.80;77.42;98379.73;105875;1276;112187;-66
2022/09/30 07:29:59;;;;;;;20.80;9.90;;;;;;;12.84;77.45;98375.97;105972;1276;96649;-66
2022/09/30 07:32:42;;;;;;;23.00;9.60;;;;;;;12.89;77.48;98378.20;105940;1276;108418;-64
2022/09/30 07:35:13;;;;;;;19.60;9.60;;;;;;;12.93;77.56;98380.30;105965;1276;99220;-66
2022/09/30 07:37:45;;;;;;;19.00;9.20;;;;;;;13.00;77.53;98382.58;106039;1276;99228;-63
2022/09/30 07:40:16;;;;;;;20.50;9.80;;;;;;;13.05;77.56;98385.82;105980;1276;113386;-65
2022/09/30 07:42:47;;;;;;;21.60;10.20;;;;;;;13.10;77.47;98384.42;105893;1276;97571;-65
2022/09/30 07:45:18;;;;;;;21.90;9.50;;;;;;;13.15;77.49;98381.70;105992;1276;109306;-64
2022/09/30 07:47:54;;;;;;;18.60;8.30;;;;;;;13.21;77.49;98386.23;106016;1276;99260;-66
2022/09/30 07:50:22;;;;;;;15.00;7.40;;;;;;;13.27;77.52;98379.61;105834;1276;100292;-66
2022/09/30 07:52:56;;;;;;;15.00;7.20;;;;;;;13.32;77.42;98381.65;105830;1276;113205;-66
2022/09/30 07:55:24;;;;;;;16.60;7.60;;;;;;;13.40;77.51;98378.59;105876;1276;99313;-66
2022/09/30 07:57:52;;;;;;;15.50;7.10;;;;;;;13.51;77.44;98380.89;105865;1276;108447;-64
2022/09/30 08:00:23;;;;;;;12.70;6.40;;;;;;;13.60;77.44;98386.20;105950;1276;99230;-65
2022/09/30 08:03:10;;;;;;;13.60;7.10;;;;;;;13.72;77.47;98385.51;105906;1276;96599;-65
2022/09/30 08:05:47;;;;;;;13.20;6.20;;;;;;;13.84;77.51;98391.58;105920;1276;111429;-62
2022/09/30 08:08:19;;;;;;;14.00;6.80;;;;;;;13.93;77.52;98397.92;105958;1276;99243;-61
2022/09/30 08:10:51;;;;;;;10.50;5.40;;;;;;;14.03;77.55;98394.05;105917;1276;108034;-65
2022/09/30 08:13:21;;;;;;;9.50;5.00;;;;;;;14.12;77.50;98390.90;105987;1276;99358;-65
2022/09/30 08:15:49;;;;;;;11.50;5.70;;;;;;;14.24;77.44;98391.35;106063;1276;99218;-64
2022/09/30 08:18:24;;;;;;;10.60;5.50;;;;;;;14.33;77.55;98386.65;106018;1276;113327;-63
2022/09/30 08:20:56;;;;;;;10.40;4.90;;;;;;;14.40;77.60;98385.19;106042;1276;99269;-64
2022/09/30 08:23:30;;;;;;;8.80;4.90;;;;;;;14.44;77.56;98384.76;105886;1276;109555;-66
2022/09/30 08:26:07;;;;;;;8.90;4.80;;;;;;;14.47;77.47;98388.33;105937;1276;99188;-64
2022/09/30 08:28:39;;;;;;;9.00;4.90;;;;;;;14.45;77.33;98393.42;106066;1276;99227;-65
2022/09/30 08:31:18;;;;;;;10.30;5.20;;;;;;;14.46;77.36;98392.63;105997;1276;113278;-65
2022/09/30 08:33:47;;;;;;;9.80;5.40;;;;;;;14.47;77.48;98395.71;105993;1276;99304;-65
2022/09/30 08:36:25;;;;;;;8.70;5.10;;;;;;;14.49;77.44;98399.61;105933;1276;108595;-64
2022/09/30 08:38:53;;;;;;;9.00;5.00;;;;;;;14.50;77.42;98401.28;105942;1276;99311;-66
2022/09/30 08:41:42;;;;;;;12.70;5.40;;;;;;;14.51;77.50;98401.20;105933;1276;99461;-61
2022/09/30 08:44:31;;;;;;;14.40;6.80;;;;;;;14.51;77.52;98399.06;105997;1276;113710;-63
2022/09/30 08:47:46;;;;;;;16.30;7.90;;;;;;;14.51;77.40;98402.27;106022;1277;99242;-63
2022/09/30 08:50:30;;;;;;;14.00;6.50;;;;;;;14.50;77.40;98403.12;105874;1276;107957;-63
2022/09/30 08:53:07;;;;;;;11.70;6.00;;;;;;;14.49;77.45;98408.20;105944;1276;99404;-64
2022/09/30 08:55:44;;;;;;;11.40;5.70;;;;;;;14.48;77.33;98406.35;106010;1277;99322;-69
2022/09/30 08:58:30;;;;;;;9.40;5.00;;;;;;;14.46;77.37;98406.51;106015;1277;112477;-64
2022/09/30 09:01:36;;;;;;;9.60;4.90;;;;;;;14.44;77.20;98409.08;106019;1278;99347;-64
2022/09/30 09:04:07;;;;;;;10.60;5.60;;;;;;;14.39;77.34;98410.96;105956;1278;107753;-61
2022/09/30 09:07:07;;;;;;;13.70;6.40;;;;;;;14.37;77.34;98403.45;105977;1277;99333;-64
2022/09/30 09:09:58;;;;;;;10.50;6.00;;;;;;;14.38;77.38;98397.87;106034;1276;100013;-63
2022/09/30 09:13:04;;;;;;;11.70;5.80;;;;;;;14.38;77.43;98403.43;105991;1278;113610;-64
2022/09/30 09:15:40;;;;;;;9.80;5.50;;;;;;;14.39;77.40;98403.64;105847;1278;99239;-65
2022/09/30 09:18:32;;;;;;;12.90;6.50;;;;;;;14.41;77.42;98409.54;105882;1278;108659;-64
2022/09/30 09:21:25;;;;;;;13.00;6.60;;;;;;;14.43;77.47;98414.84;105844;1277;99314;-65
2022/09/30 09:23:59;;;;;;;16.30;8.00;;;;;;;14.44;77.47;98422.61;105882;1277;96549;-65
2022/09/30 09:26:37;;;;;;;16.80;8.30;;;;;;;14.46;77.49;98412.66;105975;1277;112853;-65
2022/09/30 09:29:14;;;;;;;17.20;8.50;;;;;;;14.46;77.43;98413.50;105936;1277;96862;-65
2022/09/30 09:31:42;;;;;;;15.30;7.50;;;;;;;14.46;77.36;98409.88;105916;1277;108176;-64
2022/09/30 09:34:14;;;;;;;15.50;7.00;;;;;;;14.45;77.42;98409.82;105925;1278;96593;-64
2022/09/30 09:37:17;;;;;;;11.00;5.70;;;;;;;14.45;77.33;98408.98;105889;1277;99254;-65
2022/09/30 09:40:03;;;;;;;12.80;5.50;;;;;;;14.42;77.36;98415.48;105860;1277;112796;-62
2022/09/30 09:42:55;;;;;;;12.00;5.90;;;;;;;14.41;77.27;98413.48;105908;1278;99278;-65
2022/09/30 09:46:12;;;;;;;10.20;5.30;;;;;;;14.39;77.39;98412.94;105848;1277;108356;-65
2022/09/30 09:48:40;;;;;;;10.30;5.70;;;;;;;14.38;77.35;98410.69;105894;1279;97975;-64
2022/09/30 09:51:37;;;;;;;11.90;5.60;;;;;;;14.38;77.43;98410.34;105986;1278;99248;-62
2022/09/30 09:54:15;;;;;;;11.00;5.80;;;;;;;14.38;77.39;98409.10;106032;1276;111910;-66
2022/09/30 09:56:43;;;;;;;11.70;6.40;;;;;;;14.37;77.39;98412.78;106032;1275;99246;-65
2022/09/30 09:59:20;;;;;;;12.80;5.70;;;;;;;14.32;77.21;98415.90;106018;1276;107321;-65
2022/09/30 10:01:55;;;;;;;16.10;7.00;;;;;;;14.28;77.34;98420.80;106002;1276;99201;-65
2022/09/30 10:04:32;;;;;;;11.00;6.00;;;;;;;14.25;77.33;98424.96;105922;1275;99135;-66
2022/09/30 10:07:17;;;;;;;13.00;6.20;;;;;;;14.24;77.24;98433.42;105856;1277;114105;-67
2022/09/30 10:09:45;;;;;;;12.70;6.50;;;;;;;14.16;77.12;98438.01;105893;1277;99376;-66
2022/09/30 10:12:13;;;;;;;13.50;6.70;;;;;;;14.07;77.13;98442.47;105872;1277;108630;-64
2022/09/30 10:15:02;;;;;;;14.30;6.70;;;;;;;13.97;77.20;98436.06;105875;1277;97685;-65
2022/09/30 10:17:36;;;;;;;13.90;6.50;;;;;;;13.94;77.35;98432.61;105856;1277;99252;-66
2022/09/30 10:20:26;;;;;;;13.80;6.40;;;;;;;13.95;77.45;98432.88;105913;1276;112912;-64
2022/09/30 10:23:21;;;;;;;14.80;6.10;;;;;;;13.97;77.44;98439.66;105923;1276;99248;-66
2022/09/30 10:26:07;;;;;;;11.70;5.80;;;;;;;13.94;77.34;98440.33;105899;1276;107757;-65
2022/09/30 10:28:45;;;;;;;10.30;5.50;;;;;;;13.88;77.30;98436.73;105860;1276;99394;-64
2022/09/30 10:31:22;;;;;;;12.70;6.20;;;;;;;13.88;77.47;98432.14;105846;1277;99354;-67
2022/09/30 10:34:22;;;;;;;11.70;5.80;;;;;;;13.91;77.47;98435.61;105882;1277;112832;-66
2022/09/30 10:36:56;;;;;;;14.20;6.10;;;;;;;13.89;77.31;98439.05;105900;1277;99279;-65
2022/09/30 10:39:39;;;;;;;13.20;6.70;;;;;;;13.86;77.36;98435.73;105854;1277;106726;-67
2022/09/30 10:42:28;;;;;;;14.00;6.80;;;;;;;13.86;77.49;98425.40;105875;1277;99320;-64
2022/09/30 10:45:08;;;;;;;13.60;7.10;;;;;;;13.88;77.52;98423.41;105858;1276;99321;-64
2022/09/30 10:47:51;;;;;;;14.90;6.40;;;;;;;13.90;77.54;98425.16;105827;1277;112874;-64
2022/09/30 10:50:26;;;;;;;14.50;7.10;;;;;;;13.92;77.56;98419.11;105847;1277;99339;-67
2022/09/30 10:53:13;;;;;;;14.90;7.20;;;;;;;13.94;77.54;98418.54;105854;1277;106138;-64
2022/09/30 10:55:46;;;;;;;14.80;6.90;;;;;;;13.96;77.57;98416.18;105854;1278;99283;-67
2022/09/30 10:58:51;;;;;;;15.70;7.00;;;;;;;13.96;77.52;98411.35;105879;1277;99253;-65
2022/09/30 11:01:25;;;;;;;16.70;8.20;;;;;;;13.98;77.55;98408.39;105862;1278;112720;-67
2022/09/30 11:04:05;;;;;;;18.50;8.20;;;;;;;13.99;77.58;98400.78;105927;1277;99267;-65
2022/09/30 11:06:42;;;;;;;16.80;7.90;;;;;;;14.02;77.54;98401.41;105894;1278;108404;-65
2022/09/30 11:09:25;;;;;;;17.50;8.80;;;;;;;14.02;77.56;98403.16;105841;1277;99370;-66
2022/09/30 11:12:04;;;;;;;19.00;9.30;;;;;;;14.03;77.54;98401.52;105924;1278;96605;-65
2022/09/30 11:14:44;;;;;;;21.80;10.80;;;;;;;14.02;77.64;98397.10;105863;1277;112723;-64
2022/09/30 11:17:41;;;;;;;23.10;12.80;;;;;;;14.03;77.68;98400.52;105887;1278;99011;-65
2022/09/30 11:20:31;;;;;;;24.20;13.00;;;;;;;14.06;77.62;98394.38;105901;1278;107813;-66
2022/09/30 11:23:08;;;;;;;24.60;12.80;;;;;;;14.08;77.65;98394.73;105864;1276;99328;-65
2022/09/30 11:26:06;;;;;;;24.00;13.00;;;;;;;14.08;77.61;98396.89;105972;1276;99291;-65
2022/09/30 11:29:11;;;;;;;24.90;12.90;;;;;;;14.09;77.59;98399.14;105989;1278;113284;-64
2022/09/30 11:32:16;;;;;;;25.60;13.10;;;;;;;14.07;77.66;98398.98;105953;1276;99294;-64
2022/09/30 11:35:06;;;;;;;23.40;12.90;;;;;;;14.08;77.72;98394.73;105978;1276;108593;-65
2022/09/30 11:37:46;;;;;;;25.30;13.10;;;;;;;14.09;77.74;98390.69;105999;1276;96618;-65
2022/09/30 11:40:37;;;;;;;22.30;13.10;;;;;;;14.09;77.69;98382.80;105932;1276;99371;-64
2022/09/30 11:43:24;;;;;;;22.30;12.70;;;;;;;14.11;77.73;98375.00;105959;1276;113007;-63
2022/09/30 11:46:17;;;;;;;25.60;13.60;;;;;;;14.14;77.75;98380.98;106009;1274;99326;-66
2022/09/30 11:49:27;;;;;;;24.30;13.10;;;;;;;14.16;77.77;98385.02;105986;1276;106734;-66
2022/09/30 11:52:13;;;;;;;25.00;13.50;;;;;;;14.19;77.76;98384.24;105986;1276;99263;-65
2022/09/30 11:55:28;;;;;;;23.60;13.50;;;;;;;14.20;77.74;98385.70;105970;1276;99239;-64
2022/09/30 11:58:07;;;;;;;25.20;13.90;;;;;;;14.19;77.80;98383.85;105984;1276;112830;-65
2022/09/30 12:01:20;;;;;;;27.30;15.60;;;;;;;14.21;77.77;98386.90;105975;1276;99180;-63